Aviation Digital Data Service (ADDS)

Output produced by METARs form (1056 UTC 17 June 2019)
found at http://www.aviationweather.gov/metar/data/
 
METAR text: OIAW 171030Z 29010KT CAVOK 47/01 Q1000
Conditions at: OIAW (AHWAZ , IR) observed 1030 UTC 17 June 2019
Temperature: 47.0°C (117°F)
Dewpoint: 1.0°C (34°F) [RH =  6%]
Pressure (altimeter): 29.53 inches Hg (1000.0 mb)
Winds: from the WNW (290 degrees) at 12 MPH (10 knots; 5.1 m/s)
Visibility: 6 or more miles (10+ km)
Ceiling: ceiling and visibility are OK
Clouds: unknown
Weather: no significant weather observed at this time

METAR text: OIAW 171026Z 29010KT CAVOK 47/01 Q1000
Conditions at: OIAW (AHWAZ , IR) observed 1026 UTC 17 June 2019
Temperature: 47.0°C (117°F)
Dewpoint: 1.0°C (34°F) [RH =  6%]
Pressure (altimeter): 29.53 inches Hg (1000.0 mb)
Winds: from the WNW (290 degrees) at 12 MPH (10 knots; 5.1 m/s)
Visibility: 6 or more miles (10+ km)
Ceiling: ceiling and visibility are OK
Clouds: unknown
Weather: no significant weather observed at this time

METAR text: OIAW 171000Z 32006KT CAVOK 47/02 Q1000 NOSIG
Conditions at: OIAW (AHWAZ , IR) observed 1000 UTC 17 June 2019
Temperature: 47.0°C (117°F)
Dewpoint: 2.0°C (36°F) [RH =  7%]
Pressure (altimeter): 29.53 inches Hg (1000.0 mb)
Winds: from the NW (320 degrees) at 7 MPH (6 knots; 3.1 m/s)
Visibility: 6 or more miles (10+ km)
Ceiling: ceiling and visibility are OK
Clouds: unknown
Weather: no significant weather observed at this time

METAR text: OIAW 170954Z 32006KT CAVOK 47/02 Q1000 NOSIG
Conditions at: OIAW (AHWAZ , IR) observed 0954 UTC 17 June 2019
Temperature: 47.0°C (117°F)
Dewpoint: 2.0°C (36°F) [RH =  7%]
Pressure (altimeter): 29.53 inches Hg (1000.0 mb)
Winds: from the NW (320 degrees) at 7 MPH (6 knots; 3.1 m/s)
Visibility: 6 or more miles (10+ km)
Ceiling: ceiling and visibility are OK
Clouds: unknown
Weather: no significant weather observed at this time

METAR text: OIAW 170930Z 30006KT CAVOK 47/05 Q1001
Conditions at: OIAW (AHWAZ , IR) observed 0930 UTC 17 June 2019
Temperature: 47.0°C (117°F)
Dewpoint: 5.0°C (41°F) [RH =  8%]
Pressure (altimeter): 29.56 inches Hg (1001.0 mb)
Winds: from the WNW (300 degrees) at 7 MPH (6 knots; 3.1 m/s)
Visibility: 6 or more miles (10+ km)
Ceiling: ceiling and visibility are OK
Clouds: unknown
Weather: no significant weather observed at this time

METAR text: OIAW 170923Z 30006KT CAVOK 47/05 Q1001
Conditions at: OIAW (AHWAZ , IR) observed 0923 UTC 17 June 2019
Temperature: 47.0°C (117°F)
Dewpoint: 5.0°C (41°F) [RH =  8%]
Pressure (altimeter): 29.56 inches Hg (1001.0 mb)
Winds: from the WNW (300 degrees) at 7 MPH (6 knots; 3.1 m/s)
Visibility: 6 or more miles (10+ km)
Ceiling: ceiling and visibility are OK
Clouds: unknown
Weather: no significant weather observed at this time

METAR text: OIAW 170900Z 28006KT CAVOK 47/04 Q1001 NOSIG
Conditions at: OIAW (AHWAZ , IR) observed 0900 UTC 17 June 2019
Temperature: 47.0°C (117°F)
Dewpoint: 4.0°C (39°F) [RH =  8%]
Pressure (altimeter): 29.56 inches Hg (1001.0 mb)
Winds: from the W (280 degrees) at 7 MPH (6 knots; 3.1 m/s)
Visibility: 6 or more miles (10+ km)
Ceiling: ceiling and visibility are OK
Clouds: unknown
Weather: no significant weather observed at this time

METAR text: OIAW 170852Z 28006KT CAVOK 47/04 Q1001 NOSIG
Conditions at: OIAW (AHWAZ , IR) observed 0852 UTC 17 June 2019
Temperature: 47.0°C (117°F)
Dewpoint: 4.0°C (39°F) [RH =  8%]
Pressure (altimeter): 29.56 inches Hg (1001.0 mb)
Winds: from the W (280 degrees) at 7 MPH (6 knots; 3.1 m/s)
Visibility: 6 or more miles (10+ km)
Ceiling: ceiling and visibility are OK
Clouds: unknown
Weather: no significant weather observed at this time

METAR text: OIAW 170830Z 32004KT CAVOK 47/05 Q1001
Conditions at: OIAW (AHWAZ , IR) observed 0830 UTC 17 June 2019
Temperature: 47.0°C (117°F)
Dewpoint: 5.0°C (41°F) [RH =  8%]
Pressure (altimeter): 29.56 inches Hg (1001.0 mb)
Winds: from the NW (320 degrees) at 5 MPH (4 knots; 2.1 m/s)
Visibility: 6 or more miles (10+ km)
Ceiling: ceiling and visibility are OK
Clouds: unknown
Weather: no significant weather observed at this time

METAR text: OIAW 170822Z 32004KT CAVOK 47/05 Q1001
Conditions at: OIAW (AHWAZ , IR) observed 0822 UTC 17 June 2019
Temperature: 47.0°C (117°F)
Dewpoint: 5.0°C (41°F) [RH =  8%]
Pressure (altimeter): 29.56 inches Hg (1001.0 mb)
Winds: from the NW (320 degrees) at 5 MPH (4 knots; 2.1 m/s)
Visibility: 6 or more miles (10+ km)
Ceiling: ceiling and visibility are OK
Clouds: unknown
Weather: no significant weather observed at this time

METAR text: OIAW 170800Z 33006KT CAVOK 46/04 Q1001 NOSIG
Conditions at: OIAW (AHWAZ , IR) observed 0800 UTC 17 June 2019
Temperature: 46.0°C (115°F)
Dewpoint: 4.0°C (39°F) [RH =  8%]
Pressure (altimeter): 29.56 inches Hg (1001.0 mb)
Winds: from the NNW (330 degrees) at 7 MPH (6 knots; 3.1 m/s)
Visibility: 6 or more miles (10+ km)
Ceiling: ceiling and visibility are OK
Clouds: unknown
Weather: no significant weather observed at this time

METAR text: OIAW 170752Z 33006KT CAVOK 46/04 Q1001 NOSIG
Conditions at: OIAW (AHWAZ , IR) observed 0752 UTC 17 June 2019
Temperature: 46.0°C (115°F)
Dewpoint: 4.0°C (39°F) [RH =  8%]
Pressure (altimeter): 29.56 inches Hg (1001.0 mb)
Winds: from the NNW (330 degrees) at 7 MPH (6 knots; 3.1 m/s)
Visibility: 6 or more miles (10+ km)
Ceiling: ceiling and visibility are OK
Clouds: unknown
Weather: no significant weather observed at this time

METAR text: OIAW 170730Z 35006KT CAVOK 46/05 Q1001
Conditions at: OIAW (AHWAZ , IR) observed 0730 UTC 17 June 2019
Temperature: 46.0°C (115°F)
Dewpoint: 5.0°C (41°F) [RH =  9%]
Pressure (altimeter): 29.56 inches Hg (1001.0 mb)
Winds: from the N (350 degrees) at 7 MPH (6 knots; 3.1 m/s)
Visibility: 6 or more miles (10+ km)
Ceiling: ceiling and visibility are OK
Clouds: unknown
Weather: no significant weather observed at this time

METAR text: OIAW 170723Z 35006KT CAVOK 46/05 Q1001
Conditions at: OIAW (AHWAZ , IR) observed 0723 UTC 17 June 2019
Temperature: 46.0°C (115°F)
Dewpoint: 5.0°C (41°F) [RH =  9%]
Pressure (altimeter): 29.56 inches Hg (1001.0 mb)
Winds: from the N (350 degrees) at 7 MPH (6 knots; 3.1 m/s)
Visibility: 6 or more miles (10+ km)
Ceiling: ceiling and visibility are OK
Clouds: unknown
Weather: no significant weather observed at this time

METAR text: OIAW 170700Z 33004KT CAVOK 45/06 Q1001 NOSIG
Conditions at: OIAW (AHWAZ , IR) observed 0700 UTC 17 June 2019
Temperature: 45.0°C (113°F)
Dewpoint: 6.0°C (43°F) [RH = 10%]
Pressure (altimeter): 29.56 inches Hg (1001.0 mb)
Winds: from the NNW (330 degrees) at 5 MPH (4 knots; 2.1 m/s)
Visibility: 6 or more miles (10+ km)
Ceiling: ceiling and visibility are OK
Clouds: unknown
Weather: no significant weather observed at this time

METAR text: OIAW 170652Z 33004KT CAVOK 45/06 Q1001 NOSIG
Conditions at: OIAW (AHWAZ , IR) observed 0652 UTC 17 June 2019
Temperature: 45.0°C (113°F)
Dewpoint: 6.0°C (43°F) [RH = 10%]
Pressure (altimeter): 29.56 inches Hg (1001.0 mb)
Winds: from the NNW (330 degrees) at 5 MPH (4 knots; 2.1 m/s)
Visibility: 6 or more miles (10+ km)
Ceiling: ceiling and visibility are OK
Clouds: unknown
Weather: no significant weather observed at this time

METAR text: OIAW 170630Z 33004KT CAVOK 44/07 Q1001
Conditions at: OIAW (AHWAZ , IR) observed 0630 UTC 17 June 2019
Temperature: 44.0°C (111°F)
Dewpoint: 7.0°C (45°F) [RH = 11%]
Pressure (altimeter): 29.56 inches Hg (1001.0 mb)
Winds: from the NNW (330 degrees) at 5 MPH (4 knots; 2.1 m/s)
Visibility: 6 or more miles (10+ km)
Ceiling: ceiling and visibility are OK
Clouds: unknown
Weather: no significant weather observed at this time

METAR text: OIAW 170621Z 33004KT CAVOK 44/07 Q1001
Conditions at: OIAW (AHWAZ , IR) observed 0621 UTC 17 June 2019
Temperature: 44.0°C (111°F)
Dewpoint: 7.0°C (45°F) [RH = 11%]
Pressure (altimeter): 29.56 inches Hg (1001.0 mb)
Winds: from the NNW (330 degrees) at 5 MPH (4 knots; 2.1 m/s)
Visibility: 6 or more miles (10+ km)
Ceiling: ceiling and visibility are OK
Clouds: unknown
Weather: no significant weather observed at this time

METAR text: OIAW 170600Z 32004KT CAVOK 42/09 Q1001 NOSIG
Conditions at: OIAW (AHWAZ , IR) observed 0600 UTC 17 June 2019
Temperature: 42.0°C (108°F)
Dewpoint: 9.0°C (48°F) [RH = 14%]
Pressure (altimeter): 29.56 inches Hg (1001.0 mb)
Winds: from the NW (320 degrees) at 5 MPH (4 knots; 2.1 m/s)
Visibility: 6 or more miles (10+ km)
Ceiling: ceiling and visibility are OK
Clouds: unknown
Weather: no significant weather observed at this time

METAR text: OIAW 170552Z 32004KT CAVOK 42/09 Q1001 NOSIG
Conditions at: OIAW (AHWAZ , IR) observed 0552 UTC 17 June 2019
Temperature: 42.0°C (108°F)
Dewpoint: 9.0°C (48°F) [RH = 14%]
Pressure (altimeter): 29.56 inches Hg (1001.0 mb)
Winds: from the NW (320 degrees) at 5 MPH (4 knots; 2.1 m/s)
Visibility: 6 or more miles (10+ km)
Ceiling: ceiling and visibility are OK
Clouds: unknown
Weather: no significant weather observed at this time

METAR text: OIAW 170530Z 01004KT CAVOK 41/09 Q1001
Conditions at: OIAW (AHWAZ , IR) observed 0530 UTC 17 June 2019
Temperature: 41.0°C (106°F)
Dewpoint: 9.0°C (48°F) [RH = 15%]
Pressure (altimeter): 29.56 inches Hg (1001.0 mb)
Winds: from the N (10 degrees) at 5 MPH (4 knots; 2.1 m/s)
Visibility: 6 or more miles (10+ km)
Ceiling: ceiling and visibility are OK
Clouds: unknown
Weather: no significant weather observed at this time

METAR text: OIAW 170525Z 01004KT CAVOK 41/09 Q1001
Conditions at: OIAW (AHWAZ , IR) observed 0525 UTC 17 June 2019
Temperature: 41.0°C (106°F)
Dewpoint: 9.0°C (48°F) [RH = 15%]
Pressure (altimeter): 29.56 inches Hg (1001.0 mb)
Winds: from the N (10 degrees) at 5 MPH (4 knots; 2.1 m/s)
Visibility: 6 or more miles (10+ km)
Ceiling: ceiling and visibility are OK
Clouds: unknown
Weather: no significant weather observed at this time

METAR text: OIAW 170500Z 31002KT CAVOK 40/10 Q1001 NOSIG
Conditions at: OIAW (AHWAZ , IR) observed 0500 UTC 17 June 2019
Temperature: 40.0°C (104°F)
Dewpoint: 10.0°C (50°F) [RH = 17%]
Pressure (altimeter): 29.56 inches Hg (1001.0 mb)
Winds: from the NW (310 degrees) at 2 MPH (2 knots; 1.0 m/s)
Visibility: 6 or more miles (10+ km)
Ceiling: ceiling and visibility are OK
Clouds: unknown
Weather: no significant weather observed at this time

METAR text: OIAW 170451Z 31002KT CAVOK 40/10 Q1001 NOSIG
Conditions at: OIAW (AHWAZ , IR) observed 0451 UTC 17 June 2019
Temperature: 40.0°C (104°F)
Dewpoint: 10.0°C (50°F) [RH = 17%]
Pressure (altimeter): 29.56 inches Hg (1001.0 mb)
Winds: from the NW (310 degrees) at 2 MPH (2 knots; 1.0 m/s)
Visibility: 6 or more miles (10+ km)
Ceiling: ceiling and visibility are OK
Clouds: unknown
Weather: no significant weather observed at this time

METAR text: OIAW 170430Z 31002KT CAVOK 38/13 Q1001
Conditions at: OIAW (AHWAZ , IR) observed 0430 UTC 17 June 2019
Temperature: 38.0°C (100°F)
Dewpoint: 13.0°C (55°F) [RH = 23%]
Pressure (altimeter): 29.56 inches Hg (1001.0 mb)
Winds: from the NW (310 degrees) at 2 MPH (2 knots; 1.0 m/s)
Visibility: 6 or more miles (10+ km)
Ceiling: ceiling and visibility are OK
Clouds: unknown
Weather: no significant weather observed at this time

METAR text: OIAW 170423Z 31002KT CAVOK 38/13 Q1001
Conditions at: OIAW (AHWAZ , IR) observed 0423 UTC 17 June 2019
Temperature: 38.0°C (100°F)
Dewpoint: 13.0°C (55°F) [RH = 23%]
Pressure (altimeter): 29.56 inches Hg (1001.0 mb)
Winds: from the NW (310 degrees) at 2 MPH (2 knots; 1.0 m/s)
Visibility: 6 or more miles (10+ km)
Ceiling: ceiling and visibility are OK
Clouds: unknown
Weather: no significant weather observed at this time

METAR text: OIAW 170400Z 32004KT CAVOK 36/11 Q1001
Conditions at: OIAW (AHWAZ , IR) observed 0400 UTC 17 June 2019
Temperature: 36.0°C (97°F)
Dewpoint: 11.0°C (52°F) [RH = 22%]
Pressure (altimeter): 29.56 inches Hg (1001.0 mb)
Winds: from the NW (320 degrees) at 5 MPH (4 knots; 2.1 m/s)
Visibility: 6 or more miles (10+ km)
Ceiling: ceiling and visibility are OK
Clouds: unknown
Weather: no significant weather observed at this time

METAR text: OIAW 170353Z 32004KT CAVOK 36/11 Q1001
Conditions at: OIAW (AHWAZ , IR) observed 0353 UTC 17 June 2019
Temperature: 36.0°C (97°F)
Dewpoint: 11.0°C (52°F) [RH = 22%]
Pressure (altimeter): 29.56 inches Hg (1001.0 mb)
Winds: from the NW (320 degrees) at 5 MPH (4 knots; 2.1 m/s)
Visibility: 6 or more miles (10+ km)
Ceiling: ceiling and visibility are OK
Clouds: unknown
Weather: no significant weather observed at this time

METAR text: OIAW 170330Z 32004KT 7000 NSC 36/09 Q1000
Conditions at: OIAW (AHWAZ , IR) observed 0330 UTC 17 June 2019
Temperature: 36.0°C (97°F)
Dewpoint: 9.0°C (48°F) [RH = 19%]
Pressure (altimeter): 29.53 inches Hg (1000.0 mb)
Winds: from the NW (320 degrees) at 5 MPH (4 knots; 2.1 m/s)
Visibility: 4 miles ( 7 km)
Ceiling: at least 12,000 feet AGL
Clouds: sky clear below 12,000 feet AGL
Weather: no significant weather observed at this time

METAR text: OIAW 170325Z 32004KT 7000 NSC 36/09 Q1000
Conditions at: OIAW (AHWAZ , IR) observed 0325 UTC 17 June 2019
Temperature: 36.0°C (97°F)
Dewpoint: 9.0°C (48°F) [RH = 19%]
Pressure (altimeter): 29.53 inches Hg (1000.0 mb)
Winds: from the NW (320 degrees) at 5 MPH (4 knots; 2.1 m/s)
Visibility: 4 miles ( 7 km)
Ceiling: at least 12,000 feet AGL
Clouds: sky clear below 12,000 feet AGL
Weather: no significant weather observed at this time

METAR text: OIAW 170300Z 31002KT 7000 NSC 34/13 Q1000
Conditions at: OIAW (AHWAZ , IR) observed 0300 UTC 17 June 2019
Temperature: 34.0°C (93°F)
Dewpoint: 13.0°C (55°F) [RH = 28%]
Pressure (altimeter): 29.53 inches Hg (1000.0 mb)
Winds: from the NW (310 degrees) at 2 MPH (2 knots; 1.0 m/s)
Visibility: 4 miles ( 7 km)
Ceiling: at least 12,000 feet AGL
Clouds: sky clear below 12,000 feet AGL
Weather: no significant weather observed at this time

METAR text: OIAW 170252Z 31002KT 7000 NSC 34/13 Q1000
Conditions at: OIAW (AHWAZ , IR) observed 0252 UTC 17 June 2019
Temperature: 34.0°C (93°F)
Dewpoint: 13.0°C (55°F) [RH = 28%]
Pressure (altimeter): 29.53 inches Hg (1000.0 mb)
Winds: from the NW (310 degrees) at 2 MPH (2 knots; 1.0 m/s)
Visibility: 4 miles ( 7 km)
Ceiling: at least 12,000 feet AGL
Clouds: sky clear below 12,000 feet AGL
Weather: no significant weather observed at this time

METAR text: OIAW 170200Z 00000KT 7000 NSC 31/11 Q1000
Conditions at: OIAW (AHWAZ , IR) observed 0200 UTC 17 June 2019
Temperature: 31.0°C (88°F)
Dewpoint: 11.0°C (52°F) [RH = 29%]
Pressure (altimeter): 29.53 inches Hg (1000.0 mb)
Winds: calm
Visibility: 4 miles ( 7 km)
Ceiling: at least 12,000 feet AGL
Clouds: sky clear below 12,000 feet AGL
Weather: no significant weather observed at this time

METAR text: OIAW 170153Z 00000KT 7000 NSC 31/11 Q1000
Conditions at: OIAW (AHWAZ , IR) observed 0153 UTC 17 June 2019
Temperature: 31.0°C (88°F)
Dewpoint: 11.0°C (52°F) [RH = 29%]
Pressure (altimeter): 29.53 inches Hg (1000.0 mb)
Winds: calm
Visibility: 4 miles ( 7 km)
Ceiling: at least 12,000 feet AGL
Clouds: sky clear below 12,000 feet AGL
Weather: no significant weather observed at this time

METAR text: OIAW 170100Z 31002KT CAVOK 32/10 Q0999
Conditions at: OIAW (AHWAZ , IR) observed 0100 UTC 17 June 2019
Temperature: 32.0°C (90°F)
Dewpoint: 10.0°C (50°F) [RH = 26%]
Pressure (altimeter): 29.50 inches Hg (999.0 mb)
Winds: from the NW (310 degrees) at 2 MPH (2 knots; 1.0 m/s)
Visibility: 6 or more miles (10+ km)
Ceiling: ceiling and visibility are OK
Clouds: unknown
Weather: no significant weather observed at this time

METAR text: OIAW 170053Z 31002KT CAVOK 32/10 Q0999
Conditions at: OIAW (AHWAZ , IR) observed 0053 UTC 17 June 2019
Temperature: 32.0°C (90°F)
Dewpoint: 10.0°C (50°F) [RH = 26%]
Pressure (altimeter): 29.50 inches Hg (999.0 mb)
Winds: from the NW (310 degrees) at 2 MPH (2 knots; 1.0 m/s)
Visibility: 6 or more miles (10+ km)
Ceiling: ceiling and visibility are OK
Clouds: unknown
Weather: no significant weather observed at this time

METAR text: OIAW 170000Z 08002KT CAVOK 33/12 Q0999
Conditions at: OIAW (AHWAZ , IR) observed 0000 UTC 17 June 2019
Temperature: 33.0°C (91°F)
Dewpoint: 12.0°C (54°F) [RH = 28%]
Pressure (altimeter): 29.50 inches Hg (999.0 mb)
Winds: from the E (80 degrees) at 2 MPH (2 knots; 1.0 m/s)
Visibility: 6 or more miles (10+ km)
Ceiling: ceiling and visibility are OK
Clouds: unknown
Weather: no significant weather observed at this time

METAR text: OIAW 162353Z 08002KT CAVOK 33/12 Q0999
Conditions at: OIAW (AHWAZ , IR) observed 2353 UTC 16 June 2019
Temperature: 33.0°C (91°F)
Dewpoint: 12.0°C (54°F) [RH = 28%]
Pressure (altimeter): 29.50 inches Hg (999.0 mb)
Winds: from the E (80 degrees) at 2 MPH (2 knots; 1.0 m/s)
Visibility: 6 or more miles (10+ km)
Ceiling: ceiling and visibility are OK
Clouds: unknown
Weather: no significant weather observed at this time

METAR text: OIAW 162300Z 33004KT CAVOK 37/11 Q0999
Conditions at: OIAW (AHWAZ , IR) observed 2300 UTC 16 June 2019
Temperature: 37.0°C (99°F)
Dewpoint: 11.0°C (52°F) [RH = 21%]
Pressure (altimeter): 29.50 inches Hg (999.0 mb)
Winds: from the NNW (330 degrees) at 5 MPH (4 knots; 2.1 m/s)
Visibility: 6 or more miles (10+ km)
Ceiling: ceiling and visibility are OK
Clouds: unknown
Weather: no significant weather observed at this time

METAR text: OIAW 162255Z 33004KT CAVOK 37/11 Q0999
Conditions at: OIAW (AHWAZ , IR) observed 2255 UTC 16 June 2019
Temperature: 37.0°C (99°F)
Dewpoint: 11.0°C (52°F) [RH = 21%]
Pressure (altimeter): 29.50 inches Hg (999.0 mb)
Winds: from the NNW (330 degrees) at 5 MPH (4 knots; 2.1 m/s)
Visibility: 6 or more miles (10+ km)
Ceiling: ceiling and visibility are OK
Clouds: unknown
Weather: no significant weather observed at this time

METAR text: OIAW 162200Z 29004KT CAVOK 38/07 Q0999
Conditions at: OIAW (AHWAZ , IR) observed 2200 UTC 16 June 2019
Temperature: 38.0°C (100°F)
Dewpoint: 7.0°C (45°F) [RH = 15%]
Pressure (altimeter): 29.50 inches Hg (999.0 mb)
Winds: from the WNW (290 degrees) at 5 MPH (4 knots; 2.1 m/s)
Visibility: 6 or more miles (10+ km)
Ceiling: ceiling and visibility are OK
Clouds: unknown
Weather: no significant weather observed at this time

METAR text: OIAW 162152Z 29004KT CAVOK 38/07 Q0999
Conditions at: OIAW (AHWAZ , IR) observed 2152 UTC 16 June 2019
Temperature: 38.0°C (100°F)
Dewpoint: 7.0°C (45°F) [RH = 15%]
Pressure (altimeter): 29.50 inches Hg (999.0 mb)
Winds: from the WNW (290 degrees) at 5 MPH (4 knots; 2.1 m/s)
Visibility: 6 or more miles (10+ km)
Ceiling: ceiling and visibility are OK
Clouds: unknown
Weather: no significant weather observed at this time

METAR text: OIAW 162100Z 27004KT CAVOK 35/08 Q0999
Conditions at: OIAW (AHWAZ , IR) observed 2100 UTC 16 June 2019
Temperature: 35.0°C (95°F)
Dewpoint: 8.0°C (46°F) [RH = 19%]
Pressure (altimeter): 29.50 inches Hg (999.0 mb)
Winds: from the W (270 degrees) at 5 MPH (4 knots; 2.1 m/s)
Visibility: 6 or more miles (10+ km)
Ceiling: ceiling and visibility are OK
Clouds: unknown
Weather: no significant weather observed at this time

METAR text: OIAW 162050Z 27004KT CAVOK 35/08 Q0999
Conditions at: OIAW (AHWAZ , IR) observed 2050 UTC 16 June 2019
Temperature: 35.0°C (95°F)
Dewpoint: 8.0°C (46°F) [RH = 19%]
Pressure (altimeter): 29.50 inches Hg (999.0 mb)
Winds: from the W (270 degrees) at 5 MPH (4 knots; 2.1 m/s)
Visibility: 6 or more miles (10+ km)
Ceiling: ceiling and visibility are OK
Clouds: unknown
Weather: no significant weather observed at this time

METAR text: OIAW 162030Z 27002KT CAVOK 35/09 Q0999
Conditions at: OIAW (AHWAZ , IR) observed 2030 UTC 16 June 2019
Temperature: 35.0°C (95°F)
Dewpoint: 9.0°C (48°F) [RH = 20%]
Pressure (altimeter): 29.50 inches Hg (999.0 mb)
Winds: from the W (270 degrees) at 2 MPH (2 knots; 1.0 m/s)
Visibility: 6 or more miles (10+ km)
Ceiling: ceiling and visibility are OK
Clouds: unknown
Weather: no significant weather observed at this time

METAR text: OIAW 162024Z 27002KT CAVOK 35/09 Q0999
Conditions at: OIAW (AHWAZ , IR) observed 2024 UTC 16 June 2019
Temperature: 35.0°C (95°F)
Dewpoint: 9.0°C (48°F) [RH = 20%]
Pressure (altimeter): 29.50 inches Hg (999.0 mb)
Winds: from the W (270 degrees) at 2 MPH (2 knots; 1.0 m/s)
Visibility: 6 or more miles (10+ km)
Ceiling: ceiling and visibility are OK
Clouds: unknown
Weather: no significant weather observed at this time

METAR text: OIAW 162000Z 27002KT CAVOK 36/08 Q0999
Conditions at: OIAW (AHWAZ , IR) observed 2000 UTC 16 June 2019
Temperature: 36.0°C (97°F)
Dewpoint: 8.0°C (46°F) [RH = 18%]
Pressure (altimeter): 29.50 inches Hg (999.0 mb)
Winds: from the W (270 degrees) at 2 MPH (2 knots; 1.0 m/s)
Visibility: 6 or more miles (10+ km)
Ceiling: ceiling and visibility are OK
Clouds: unknown
Weather: no significant weather observed at this time

METAR text: OIAW 161951Z 27002KT CAVOK 36/08 Q0999
Conditions at: OIAW (AHWAZ , IR) observed 1951 UTC 16 June 2019
Temperature: 36.0°C (97°F)
Dewpoint: 8.0°C (46°F) [RH = 18%]
Pressure (altimeter): 29.50 inches Hg (999.0 mb)
Winds: from the W (270 degrees) at 2 MPH (2 knots; 1.0 m/s)
Visibility: 6 or more miles (10+ km)
Ceiling: ceiling and visibility are OK
Clouds: unknown
Weather: no significant weather observed at this time

METAR text: OIAW 161930Z 27004KT CAVOK 37/07 Q1000
Conditions at: OIAW (AHWAZ , IR) observed 1930 UTC 16 June 2019
Temperature: 37.0°C (99°F)
Dewpoint: 7.0°C (45°F) [RH = 16%]
Pressure (altimeter): 29.53 inches Hg (1000.0 mb)
Winds: from the W (270 degrees) at 5 MPH (4 knots; 2.1 m/s)
Visibility: 6 or more miles (10+ km)
Ceiling: ceiling and visibility are OK
Clouds: unknown
Weather: no significant weather observed at this time

METAR text: OIAW 161924Z 27004KT CAVOK 37/07 Q1000
Conditions at: OIAW (AHWAZ , IR) observed 1924 UTC 16 June 2019
Temperature: 37.0°C (99°F)
Dewpoint: 7.0°C (45°F) [RH = 16%]
Pressure (altimeter): 29.53 inches Hg (1000.0 mb)
Winds: from the W (270 degrees) at 5 MPH (4 knots; 2.1 m/s)
Visibility: 6 or more miles (10+ km)
Ceiling: ceiling and visibility are OK
Clouds: unknown
Weather: no significant weather observed at this time

METAR text: OIAW 161900Z 27004KT CAVOK 38/07 Q0999
Conditions at: OIAW (AHWAZ , IR) observed 1900 UTC 16 June 2019
Temperature: 38.0°C (100°F)
Dewpoint: 7.0°C (45°F) [RH = 15%]
Pressure (altimeter): 29.50 inches Hg (999.0 mb)
Winds: from the W (270 degrees) at 5 MPH (4 knots; 2.1 m/s)
Visibility: 6 or more miles (10+ km)
Ceiling: ceiling and visibility are OK
Clouds: unknown
Weather: no significant weather observed at this time

METAR text: OIAW 161851Z 27004KT CAVOK 38/07 Q0999
Conditions at: OIAW (AHWAZ , IR) observed 1851 UTC 16 June 2019
Temperature: 38.0°C (100°F)
Dewpoint: 7.0°C (45°F) [RH = 15%]
Pressure (altimeter): 29.50 inches Hg (999.0 mb)
Winds: from the W (270 degrees) at 5 MPH (4 knots; 2.1 m/s)
Visibility: 6 or more miles (10+ km)
Ceiling: ceiling and visibility are OK
Clouds: unknown
Weather: no significant weather observed at this time

METAR text: OIAW 161830Z 26004KT CAVOK 39/07 Q0999
Conditions at: OIAW (AHWAZ , IR) observed 1830 UTC 16 June 2019
Temperature: 39.0°C (102°F)
Dewpoint: 7.0°C (45°F) [RH = 14%]
Pressure (altimeter): 29.50 inches Hg (999.0 mb)
Winds: from the W (260 degrees) at 5 MPH (4 knots; 2.1 m/s)
Visibility: 6 or more miles (10+ km)
Ceiling: ceiling and visibility are OK
Clouds: unknown
Weather: no significant weather observed at this time

METAR text: OIAW 161824Z 26004KT CAVOK 39/07 Q0999
Conditions at: OIAW (AHWAZ , IR) observed 1824 UTC 16 June 2019
Temperature: 39.0°C (102°F)
Dewpoint: 7.0°C (45°F) [RH = 14%]
Pressure (altimeter): 29.50 inches Hg (999.0 mb)
Winds: from the W (260 degrees) at 5 MPH (4 knots; 2.1 m/s)
Visibility: 6 or more miles (10+ km)
Ceiling: ceiling and visibility are OK
Clouds: unknown
Weather: no significant weather observed at this time

METAR text: OIAW 161800Z 27004KT CAVOK 39/07 Q0999
Conditions at: OIAW (AHWAZ , IR) observed 1800 UTC 16 June 2019
Temperature: 39.0°C (102°F)
Dewpoint: 7.0°C (45°F) [RH = 14%]
Pressure (altimeter): 29.50 inches Hg (999.0 mb)
Winds: from the W (270 degrees) at 5 MPH (4 knots; 2.1 m/s)
Visibility: 6 or more miles (10+ km)
Ceiling: ceiling and visibility are OK
Clouds: unknown
Weather: no significant weather observed at this time

METAR text: OIAW 161751Z 27004KT CAVOK 39/07 Q0999
Conditions at: OIAW (AHWAZ , IR) observed 1751 UTC 16 June 2019
Temperature: 39.0°C (102°F)
Dewpoint: 7.0°C (45°F) [RH = 14%]
Pressure (altimeter): 29.50 inches Hg (999.0 mb)
Winds: from the W (270 degrees) at 5 MPH (4 knots; 2.1 m/s)
Visibility: 6 or more miles (10+ km)
Ceiling: ceiling and visibility are OK
Clouds: unknown
Weather: no significant weather observed at this time

METAR text: OIAW 161730Z 27004KT CAVOK 40/07 Q0999
Conditions at: OIAW (AHWAZ , IR) observed 1730 UTC 16 June 2019
Temperature: 40.0°C (104°F)
Dewpoint: 7.0°C (45°F) [RH = 14%]
Pressure (altimeter): 29.50 inches Hg (999.0 mb)
Winds: from the W (270 degrees) at 5 MPH (4 knots; 2.1 m/s)
Visibility: 6 or more miles (10+ km)
Ceiling: ceiling and visibility are OK
Clouds: unknown
Weather: no significant weather observed at this time

METAR text: OIAW 161724Z 27004KT CAVOK 40/07 Q0999
Conditions at: OIAW (AHWAZ , IR) observed 1724 UTC 16 June 2019
Temperature: 40.0°C (104°F)
Dewpoint: 7.0°C (45°F) [RH = 14%]
Pressure (altimeter): 29.50 inches Hg (999.0 mb)
Winds: from the W (270 degrees) at 5 MPH (4 knots; 2.1 m/s)
Visibility: 6 or more miles (10+ km)
Ceiling: ceiling and visibility are OK
Clouds: unknown
Weather: no significant weather observed at this time

METAR text: OIAW 161700Z 26004KT CAVOK 41/07 Q0999
Conditions at: OIAW (AHWAZ , IR) observed 1700 UTC 16 June 2019
Temperature: 41.0°C (106°F)
Dewpoint: 7.0°C (45°F) [RH = 13%]
Pressure (altimeter): 29.50 inches Hg (999.0 mb)
Winds: from the W (260 degrees) at 5 MPH (4 knots; 2.1 m/s)
Visibility: 6 or more miles (10+ km)
Ceiling: ceiling and visibility are OK
Clouds: unknown
Weather: no significant weather observed at this time

METAR text: OIAW 161630Z 28004KT CAVOK 42/04 Q0999
Conditions at: OIAW (AHWAZ , IR) observed 1630 UTC 16 June 2019
Temperature: 42.0°C (108°F)
Dewpoint: 4.0°C (39°F) [RH = 10%]
Pressure (altimeter): 29.50 inches Hg (999.0 mb)
Winds: from the W (280 degrees) at 5 MPH (4 knots; 2.1 m/s)
Visibility: 6 or more miles (10+ km)
Ceiling: ceiling and visibility are OK
Clouds: unknown
Weather: no significant weather observed at this time

METAR text: OIAW 161600Z 29004KT CAVOK 43/05 Q0998
Conditions at: OIAW (AHWAZ , IR) observed 1600 UTC 16 June 2019
Temperature: 43.0°C (109°F)
Dewpoint: 5.0°C (41°F) [RH = 10%]
Pressure (altimeter): 29.47 inches Hg (998.0 mb)
Winds: from the WNW (290 degrees) at 5 MPH (4 knots; 2.1 m/s)
Visibility: 6 or more miles (10+ km)
Ceiling: ceiling and visibility are OK
Clouds: unknown
Weather: no significant weather observed at this time

METAR text: OIAW 161530Z 29006KT CAVOK 44/04 Q0998
Conditions at: OIAW (AHWAZ , IR) observed 1530 UTC 16 June 2019
Temperature: 44.0°C (111°F)
Dewpoint: 4.0°C (39°F) [RH =  9%]
Pressure (altimeter): 29.47 inches Hg (998.0 mb)
Winds: from the WNW (290 degrees) at 7 MPH (6 knots; 3.1 m/s)
Visibility: 6 or more miles (10+ km)
Ceiling: ceiling and visibility are OK
Clouds: unknown
Weather: no significant weather observed at this time

METAR text: OIAW 161500Z 29006KT CAVOK 46/04 Q0998 NOSIG
Conditions at: OIAW (AHWAZ , IR) observed 1500 UTC 16 June 2019
Temperature: 46.0°C (115°F)
Dewpoint: 4.0°C (39°F) [RH =  8%]
Pressure (altimeter): 29.47 inches Hg (998.0 mb)
Winds: from the WNW (290 degrees) at 7 MPH (6 knots; 3.1 m/s)
Visibility: 6 or more miles (10+ km)
Ceiling: ceiling and visibility are OK
Clouds: unknown
Weather: no significant weather observed at this time

METAR text: OIAW 161430Z 29006KT CAVOK 47/04 Q0998
Conditions at: OIAW (AHWAZ , IR) observed 1430 UTC 16 June 2019
Temperature: 47.0°C (117°F)
Dewpoint: 4.0°C (39°F) [RH =  8%]
Pressure (altimeter): 29.47 inches Hg (998.0 mb)
Winds: from the WNW (290 degrees) at 7 MPH (6 knots; 3.1 m/s)
Visibility: 6 or more miles (10+ km)
Ceiling: ceiling and visibility are OK
Clouds: unknown
Weather: no significant weather observed at this time

METAR text: OIAW 161400Z 29006KT CAVOK 47/03 Q0998 NOSIG
Conditions at: OIAW (AHWAZ , IR) observed 1400 UTC 16 June 2019
Temperature: 47.0°C (117°F)
Dewpoint: 3.0°C (37°F) [RH =  7%]
Pressure (altimeter): 29.47 inches Hg (998.0 mb)
Winds: from the WNW (290 degrees) at 7 MPH (6 knots; 3.1 m/s)
Visibility: 6 or more miles (10+ km)
Ceiling: ceiling and visibility are OK
Clouds: unknown
Weather: no significant weather observed at this time

METAR text: OIAW 161330Z 29006KT CAVOK 48/05 Q0998
Conditions at: OIAW (AHWAZ , IR) observed 1330 UTC 16 June 2019
Temperature: 48.0°C (118°F)
Dewpoint: 5.0°C (41°F) [RH =  8%]
Pressure (altimeter): 29.47 inches Hg (998.0 mb)
Winds: from the WNW (290 degrees) at 7 MPH (6 knots; 3.1 m/s)
Visibility: 6 or more miles (10+ km)
Ceiling: ceiling and visibility are OK
Clouds: unknown
Weather: no significant weather observed at this time

METAR text: OIAW 161300Z 28004KT CAVOK 48/04 Q0998 NOSIG
Conditions at: OIAW (AHWAZ , IR) observed 1300 UTC 16 June 2019
Temperature: 48.0°C (118°F)
Dewpoint: 4.0°C (39°F) [RH =  7%]
Pressure (altimeter): 29.47 inches Hg (998.0 mb)
Winds: from the W (280 degrees) at 5 MPH (4 knots; 2.1 m/s)
Visibility: 6 or more miles (10+ km)
Ceiling: ceiling and visibility are OK
Clouds: unknown
Weather: no significant weather observed at this time

METAR text: OIAW 161230Z 28006KT CAVOK 48/01 Q0998
Conditions at: OIAW (AHWAZ , IR) observed 1230 UTC 16 June 2019
Temperature: 48.0°C (118°F)
Dewpoint: 1.0°C (34°F) [RH =  6%]
Pressure (altimeter): 29.47 inches Hg (998.0 mb)
Winds: from the W (280 degrees) at 7 MPH (6 knots; 3.1 m/s)
Visibility: 6 or more miles (10+ km)
Ceiling: ceiling and visibility are OK
Clouds: unknown
Weather: no significant weather observed at this time

METAR text: OIAW 161200Z 29006KT CAVOK 48/04 Q0998 NOSIG
Conditions at: OIAW (AHWAZ , IR) observed 1200 UTC 16 June 2019
Temperature: 48.0°C (118°F)
Dewpoint: 4.0°C (39°F) [RH =  7%]
Pressure (altimeter): 29.47 inches Hg (998.0 mb)
Winds: from the WNW (290 degrees) at 7 MPH (6 knots; 3.1 m/s)
Visibility: 6 or more miles (10+ km)
Ceiling: ceiling and visibility are OK
Clouds: unknown
Weather: no significant weather observed at this time

METAR text: OIAW 161130Z 29008KT CAVOK 48/04 Q0998
Conditions at: OIAW (AHWAZ , IR) observed 1130 UTC 16 June 2019
Temperature: 48.0°C (118°F)
Dewpoint: 4.0°C (39°F) [RH =  7%]
Pressure (altimeter): 29.47 inches Hg (998.0 mb)
Winds: from the WNW (290 degrees) at 9 MPH (8 knots; 4.1 m/s)
Visibility: 6 or more miles (10+ km)
Ceiling: ceiling and visibility are OK
Clouds: unknown
Weather: no significant weather observed at this time

METAR text: OIAW 161100Z 29004KT CAVOK 49/04 Q0999 NOSIG
Conditions at: OIAW (AHWAZ , IR) observed 1100 UTC 16 June 2019
Temperature: 49.0°C (120°F)
Dewpoint: 4.0°C (39°F) [RH =  7%]
Pressure (altimeter): 29.50 inches Hg (999.0 mb)
Winds: from the WNW (290 degrees) at 5 MPH (4 knots; 2.1 m/s)
Visibility: 6 or more miles (10+ km)
Ceiling: ceiling and visibility are OK
Clouds: unknown
Weather: no significant weather observed at this time

METAR text: OIAW 161030Z 33004KT CAVOK 49/04 Q0999
Conditions at: OIAW (AHWAZ , IR) observed 1030 UTC 16 June 2019
Temperature: 49.0°C (120°F)
Dewpoint: 4.0°C (39°F) [RH =  7%]
Pressure (altimeter): 29.50 inches Hg (999.0 mb)
Winds: from the NNW (330 degrees) at 5 MPH (4 knots; 2.1 m/s)
Visibility: 6 or more miles (10+ km)
Ceiling: ceiling and visibility are OK
Clouds: unknown
Weather: no significant weather observed at this time

METAR text: OIAW 161023Z 33004KT CAVOK 49/04 Q0999
Conditions at: OIAW (AHWAZ , IR) observed 1023 UTC 16 June 2019
Temperature: 49.0°C (120°F)
Dewpoint: 4.0°C (39°F) [RH =  7%]
Pressure (altimeter): 29.50 inches Hg (999.0 mb)
Winds: from the NNW (330 degrees) at 5 MPH (4 knots; 2.1 m/s)
Visibility: 6 or more miles (10+ km)
Ceiling: ceiling and visibility are OK
Clouds: unknown
Weather: no significant weather observed at this time

METAR text: OIAW 161000Z 32004KT CAVOK 48/04 Q0999 NOSIG
Conditions at: OIAW (AHWAZ , IR) observed 1000 UTC 16 June 2019
Temperature: 48.0°C (118°F)
Dewpoint: 4.0°C (39°F) [RH =  7%]
Pressure (altimeter): 29.50 inches Hg (999.0 mb)
Winds: from the NW (320 degrees) at 5 MPH (4 knots; 2.1 m/s)
Visibility: 6 or more miles (10+ km)
Ceiling: ceiling and visibility are OK
Clouds: unknown
Weather: no significant weather observed at this time

METAR text: OIAW 160952Z 32004KT CAVOK 48/04 Q0999 NOSIG
Conditions at: OIAW (AHWAZ , IR) observed 0952 UTC 16 June 2019
Temperature: 48.0°C (118°F)
Dewpoint: 4.0°C (39°F) [RH =  7%]
Pressure (altimeter): 29.50 inches Hg (999.0 mb)
Winds: from the NW (320 degrees) at 5 MPH (4 knots; 2.1 m/s)
Visibility: 6 or more miles (10+ km)
Ceiling: ceiling and visibility are OK
Clouds: unknown
Weather: no significant weather observed at this time

METAR text: OIAW 160930Z 32004KT CAVOK 48/05 Q1000
Conditions at: OIAW (AHWAZ , IR) observed 0930 UTC 16 June 2019
Temperature: 48.0°C (118°F)
Dewpoint: 5.0°C (41°F) [RH =  8%]
Pressure (altimeter): 29.53 inches Hg (1000.0 mb)
Winds: from the NW (320 degrees) at 5 MPH (4 knots; 2.1 m/s)
Visibility: 6 or more miles (10+ km)
Ceiling: ceiling and visibility are OK
Clouds: unknown
Weather: no significant weather observed at this time

METAR text: OIAW 160924Z 32004KT CAVOK 48/05 Q1000
Conditions at: OIAW (AHWAZ , IR) observed 0924 UTC 16 June 2019
Temperature: 48.0°C (118°F)
Dewpoint: 5.0°C (41°F) [RH =  8%]
Pressure (altimeter): 29.53 inches Hg (1000.0 mb)
Winds: from the NW (320 degrees) at 5 MPH (4 knots; 2.1 m/s)
Visibility: 6 or more miles (10+ km)
Ceiling: ceiling and visibility are OK
Clouds: unknown
Weather: no significant weather observed at this time

METAR text: OIAW 160900Z 36004KT CAVOK 47/05 Q1000 NOSIG
Conditions at: OIAW (AHWAZ , IR) observed 0900 UTC 16 June 2019
Temperature: 47.0°C (117°F)
Dewpoint: 5.0°C (41°F) [RH =  8%]
Pressure (altimeter): 29.53 inches Hg (1000.0 mb)
Winds: from the N (360 degrees) at 5 MPH (4 knots; 2.1 m/s)
Visibility: 6 or more miles (10+ km)
Ceiling: ceiling and visibility are OK
Clouds: unknown
Weather: no significant weather observed at this time

METAR text: OIAW 160850Z 36004KT CAVOK 47/05 Q1000 NOSIG
Conditions at: OIAW (AHWAZ , IR) observed 0850 UTC 16 June 2019
Temperature: 47.0°C (117°F)
Dewpoint: 5.0°C (41°F) [RH =  8%]
Pressure (altimeter): 29.53 inches Hg (1000.0 mb)
Winds: from the N (360 degrees) at 5 MPH (4 knots; 2.1 m/s)
Visibility: 6 or more miles (10+ km)
Ceiling: ceiling and visibility are OK
Clouds: unknown
Weather: no significant weather observed at this time

METAR text: OIAW 160830Z 04004KT CAVOK 47/05 Q1000
Conditions at: OIAW (AHWAZ , IR) observed 0830 UTC 16 June 2019
Temperature: 47.0°C (117°F)
Dewpoint: 5.0°C (41°F) [RH =  8%]
Pressure (altimeter): 29.53 inches Hg (1000.0 mb)
Winds: from the NE (40 degrees) at 5 MPH (4 knots; 2.1 m/s)
Visibility: 6 or more miles (10+ km)
Ceiling: ceiling and visibility are OK
Clouds: unknown
Weather: no significant weather observed at this time

METAR text: OIAW 160820Z 04004KT CAVOK 47/05 Q1000
Conditions at: OIAW (AHWAZ , IR) observed 0820 UTC 16 June 2019
Temperature: 47.0°C (117°F)
Dewpoint: 5.0°C (41°F) [RH =  8%]
Pressure (altimeter): 29.53 inches Hg (1000.0 mb)
Winds: from the NE (40 degrees) at 5 MPH (4 knots; 2.1 m/s)
Visibility: 6 or more miles (10+ km)
Ceiling: ceiling and visibility are OK
Clouds: unknown
Weather: no significant weather observed at this time

METAR text: OIAW 160800Z 01004KT CAVOK 46/04 Q1000 NOSIG
Conditions at: OIAW (AHWAZ , IR) observed 0800 UTC 16 June 2019
Temperature: 46.0°C (115°F)
Dewpoint: 4.0°C (39°F) [RH =  8%]
Pressure (altimeter): 29.53 inches Hg (1000.0 mb)
Winds: from the N (10 degrees) at 5 MPH (4 knots; 2.1 m/s)
Visibility: 6 or more miles (10+ km)
Ceiling: ceiling and visibility are OK
Clouds: unknown
Weather: no significant weather observed at this time

METAR text: OIAW 160754Z 01004KT CAVOK 46/04 Q1000 NOSIG
Conditions at: OIAW (AHWAZ , IR) observed 0754 UTC 16 June 2019
Temperature: 46.0°C (115°F)
Dewpoint: 4.0°C (39°F) [RH =  8%]
Pressure (altimeter): 29.53 inches Hg (1000.0 mb)
Winds: from the N (10 degrees) at 5 MPH (4 knots; 2.1 m/s)
Visibility: 6 or more miles (10+ km)
Ceiling: ceiling and visibility are OK
Clouds: unknown
Weather: no significant weather observed at this time

METAR text: OIAW 160730Z 35004KT CAVOK 46/05 Q1000
Conditions at: OIAW (AHWAZ , IR) observed 0730 UTC 16 June 2019
Temperature: 46.0°C (115°F)
Dewpoint: 5.0°C (41°F) [RH =  9%]
Pressure (altimeter): 29.53 inches Hg (1000.0 mb)
Winds: from the N (350 degrees) at 5 MPH (4 knots; 2.1 m/s)
Visibility: 6 or more miles (10+ km)
Ceiling: ceiling and visibility are OK
Clouds: unknown
Weather: no significant weather observed at this time

METAR text: OIAW 160726Z 35004KT CAVOK 46/05 Q1000
Conditions at: OIAW (AHWAZ , IR) observed 0726 UTC 16 June 2019
Temperature: 46.0°C (115°F)
Dewpoint: 5.0°C (41°F) [RH =  9%]
Pressure (altimeter): 29.53 inches Hg (1000.0 mb)
Winds: from the N (350 degrees) at 5 MPH (4 knots; 2.1 m/s)
Visibility: 6 or more miles (10+ km)
Ceiling: ceiling and visibility are OK
Clouds: unknown
Weather: no significant weather observed at this time

METAR text: OIAW 160651Z 03002KT CAVOK 45/05 Q1000 NOSIG
Conditions at: OIAW (AHWAZ , IR) observed 0651 UTC 16 June 2019
Temperature: 45.0°C (113°F)
Dewpoint: 5.0°C (41°F) [RH =  9%]
Pressure (altimeter): 29.53 inches Hg (1000.0 mb)
Winds: from the NNE (30 degrees) at 2 MPH (2 knots; 1.0 m/s)
Visibility: 6 or more miles (10+ km)
Ceiling: ceiling and visibility are OK
Clouds: unknown
Weather: no significant weather observed at this time

METAR text: OIAW 160622Z 33002KT CAVOK 45/09 Q1000
Conditions at: OIAW (AHWAZ , IR) observed 0622 UTC 16 June 2019
Temperature: 45.0°C (113°F)
Dewpoint: 9.0°C (48°F) [RH = 12%]
Pressure (altimeter): 29.53 inches Hg (1000.0 mb)
Winds: from the NNW (330 degrees) at 2 MPH (2 knots; 1.0 m/s)
Visibility: 6 or more miles (10+ km)
Ceiling: ceiling and visibility are OK
Clouds: unknown
Weather: no significant weather observed at this time

METAR text: OIAW 160550Z 32002KT 8000 NSC 43/10 Q1000 NOSIG
Conditions at: OIAW (AHWAZ , IR) observed 0550 UTC 16 June 2019
Temperature: 43.0°C (109°F)
Dewpoint: 10.0°C (50°F) [RH = 14%]
Pressure (altimeter): 29.53 inches Hg (1000.0 mb)
Winds: from the NW (320 degrees) at 2 MPH (2 knots; 1.0 m/s)
Visibility: 5 miles ( 8 km)
Ceiling: at least 12,000 feet AGL
Clouds: sky clear below 12,000 feet AGL
Weather: no significant weather observed at this time

METAR text: OIAW 160525Z 31004KT 8000 NSC 42/10 Q0999
Conditions at: OIAW (AHWAZ , IR) observed 0525 UTC 16 June 2019
Temperature: 42.0°C (108°F)
Dewpoint: 10.0°C (50°F) [RH = 15%]
Pressure (altimeter): 29.50 inches Hg (999.0 mb)
Winds: from the NW (310 degrees) at 5 MPH (4 knots; 2.1 m/s)
Visibility: 5 miles ( 8 km)
Ceiling: at least 12,000 feet AGL
Clouds: sky clear below 12,000 feet AGL
Weather: no significant weather observed at this time

METAR text: OIAW 160458Z 31002KT 8000 NSC 41/10 Q0999 NOSIG
Conditions at: OIAW (AHWAZ , IR) observed 0458 UTC 16 June 2019
Temperature: 41.0°C (106°F)
Dewpoint: 10.0°C (50°F) [RH = 16%]
Pressure (altimeter): 29.50 inches Hg (999.0 mb)
Winds: from the NW (310 degrees) at 2 MPH (2 knots; 1.0 m/s)
Visibility: 5 miles ( 8 km)
Ceiling: at least 12,000 feet AGL
Clouds: sky clear below 12,000 feet AGL
Weather: no significant weather observed at this time

METAR text: OIAW 160430Z 31004KT 8000 NSC 40/09 Q1000
Conditions at: OIAW (AHWAZ , IR) observed 0430 UTC 16 June 2019
Temperature: 40.0°C (104°F)
Dewpoint: 9.0°C (48°F) [RH = 16%]
Pressure (altimeter): 29.53 inches Hg (1000.0 mb)
Winds: from the NW (310 degrees) at 5 MPH (4 knots; 2.1 m/s)
Visibility: 5 miles ( 8 km)
Ceiling: at least 12,000 feet AGL
Clouds: sky clear below 12,000 feet AGL
Weather: no significant weather observed at this time

METAR text: OIAW 160423Z 31004KT 8000 NSC 40/09 Q1000
Conditions at: OIAW (AHWAZ , IR) observed 0423 UTC 16 June 2019
Temperature: 40.0°C (104°F)
Dewpoint: 9.0°C (48°F) [RH = 16%]
Pressure (altimeter): 29.53 inches Hg (1000.0 mb)
Winds: from the NW (310 degrees) at 5 MPH (4 knots; 2.1 m/s)
Visibility: 5 miles ( 8 km)
Ceiling: at least 12,000 feet AGL
Clouds: sky clear below 12,000 feet AGL
Weather: no significant weather observed at this time

METAR text: OIAW 160400Z 28002KT 8000 NSC 39/18 Q0999 NOSIG
Conditions at: OIAW (AHWAZ , IR) observed 0400 UTC 16 June 2019
Temperature: 39.0°C (102°F)
Dewpoint: 18.0°C (64°F) [RH = 30%]
Pressure (altimeter): 29.50 inches Hg (999.0 mb)
Winds: from the W (280 degrees) at 2 MPH (2 knots; 1.0 m/s)
Visibility: 5 miles ( 8 km)
Ceiling: at least 12,000 feet AGL
Clouds: sky clear below 12,000 feet AGL
Weather: no significant weather observed at this time

METAR text: OIAW 160353Z 28002KT 8000 NSC 39/18 Q0999 NOSIG
Conditions at: OIAW (AHWAZ , IR) observed 0353 UTC 16 June 2019
Temperature: 39.0°C (102°F)
Dewpoint: 18.0°C (64°F) [RH = 30%]
Pressure (altimeter): 29.50 inches Hg (999.0 mb)
Winds: from the W (280 degrees) at 2 MPH (2 knots; 1.0 m/s)
Visibility: 5 miles ( 8 km)
Ceiling: at least 12,000 feet AGL
Clouds: sky clear below 12,000 feet AGL
Weather: no significant weather observed at this time

METAR text: OIAW 160330Z 27002KT 8000 NSC 38/19 Q0999
Conditions at: OIAW (AHWAZ , IR) observed 0330 UTC 16 June 2019
Temperature: 38.0°C (100°F)
Dewpoint: 19.0°C (66°F) [RH = 33%]
Pressure (altimeter): 29.50 inches Hg (999.0 mb)
Winds: from the W (270 degrees) at 2 MPH (2 knots; 1.0 m/s)
Visibility: 5 miles ( 8 km)
Ceiling: at least 12,000 feet AGL
Clouds: sky clear below 12,000 feet AGL
Weather: no significant weather observed at this time

METAR text: OIAW 160324Z 27002KT 8000 NSC 38/19 Q0999
Conditions at: OIAW (AHWAZ , IR) observed 0324 UTC 16 June 2019
Temperature: 38.0°C (100°F)
Dewpoint: 19.0°C (66°F) [RH = 33%]
Pressure (altimeter): 29.50 inches Hg (999.0 mb)
Winds: from the W (270 degrees) at 2 MPH (2 knots; 1.0 m/s)
Visibility: 5 miles ( 8 km)
Ceiling: at least 12,000 feet AGL
Clouds: sky clear below 12,000 feet AGL
Weather: no significant weather observed at this time

METAR text: OIAW 160300Z 27002KT 8000 NSC 32/12 Q0999
Conditions at: OIAW (AHWAZ , IR) observed 0300 UTC 16 June 2019
Temperature: 32.0°C (90°F)
Dewpoint: 12.0°C (54°F) [RH = 30%]
Pressure (altimeter): 29.50 inches Hg (999.0 mb)
Winds: from the W (270 degrees) at 2 MPH (2 knots; 1.0 m/s)
Visibility: 5 miles ( 8 km)
Ceiling: at least 12,000 feet AGL
Clouds: sky clear below 12,000 feet AGL
Weather: no significant weather observed at this time

METAR text: OIAW 160253Z 27002KT 8000 NSC 32/12 Q0999
Conditions at: OIAW (AHWAZ , IR) observed 0253 UTC 16 June 2019
Temperature: 32.0°C (90°F)
Dewpoint: 12.0°C (54°F) [RH = 30%]
Pressure (altimeter): 29.50 inches Hg (999.0 mb)
Winds: from the W (270 degrees) at 2 MPH (2 knots; 1.0 m/s)
Visibility: 5 miles ( 8 km)
Ceiling: at least 12,000 feet AGL
Clouds: sky clear below 12,000 feet AGL
Weather: no significant weather observed at this time

METAR text: OIAW 160200Z 27002KT CAVOK 29/10 Q0998
Conditions at: OIAW (AHWAZ , IR) observed 0200 UTC 16 June 2019
Temperature: 29.0°C (84°F)
Dewpoint: 10.0°C (50°F) [RH = 31%]
Pressure (altimeter): 29.47 inches Hg (998.0 mb)
Winds: from the W (270 degrees) at 2 MPH (2 knots; 1.0 m/s)
Visibility: 6 or more miles (10+ km)
Ceiling: ceiling and visibility are OK
Clouds: unknown
Weather: no significant weather observed at this time

METAR text: OIAW 160155Z 27002KT CAVOK 29/10 Q0998
Conditions at: OIAW (AHWAZ , IR) observed 0155 UTC 16 June 2019
Temperature: 29.0°C (84°F)
Dewpoint: 10.0°C (50°F) [RH = 31%]
Pressure (altimeter): 29.47 inches Hg (998.0 mb)
Winds: from the W (270 degrees) at 2 MPH (2 knots; 1.0 m/s)
Visibility: 6 or more miles (10+ km)
Ceiling: ceiling and visibility are OK
Clouds: unknown
Weather: no significant weather observed at this time

METAR text: OIAW 160100Z 25002KT CAVOK 29/11 Q0998
Conditions at: OIAW (AHWAZ , IR) observed 0100 UTC 16 June 2019
Temperature: 29.0°C (84°F)
Dewpoint: 11.0°C (52°F) [RH = 33%]
Pressure (altimeter): 29.47 inches Hg (998.0 mb)
Winds: from the WSW (250 degrees) at 2 MPH (2 knots; 1.0 m/s)
Visibility: 6 or more miles (10+ km)
Ceiling: ceiling and visibility are OK
Clouds: unknown
Weather: no significant weather observed at this time

METAR text: OIAW 160052Z 25002KT CAVOK 29/11 Q0998
Conditions at: OIAW (AHWAZ , IR) observed 0052 UTC 16 June 2019
Temperature: 29.0°C (84°F)
Dewpoint: 11.0°C (52°F) [RH = 33%]
Pressure (altimeter): 29.47 inches Hg (998.0 mb)
Winds: from the WSW (250 degrees) at 2 MPH (2 knots; 1.0 m/s)
Visibility: 6 or more miles (10+ km)
Ceiling: ceiling and visibility are OK
Clouds: unknown
Weather: no significant weather observed at this time

METAR text: OIAW 160000Z 32002KT CAVOK 30/10 Q0998
Conditions at: OIAW (AHWAZ , IR) observed 0000 UTC 16 June 2019
Temperature: 30.0°C (86°F)
Dewpoint: 10.0°C (50°F) [RH = 29%]
Pressure (altimeter): 29.47 inches Hg (998.0 mb)
Winds: from the NW (320 degrees) at 2 MPH (2 knots; 1.0 m/s)
Visibility: 6 or more miles (10+ km)
Ceiling: ceiling and visibility are OK
Clouds: unknown
Weather: no significant weather observed at this time

METAR text: OIAW 152353Z 32002KT CAVOK 30/10 Q0998
Conditions at: OIAW (AHWAZ , IR) observed 2353 UTC 15 June 2019
Temperature: 30.0°C (86°F)
Dewpoint: 10.0°C (50°F) [RH = 29%]
Pressure (altimeter): 29.47 inches Hg (998.0 mb)
Winds: from the NW (320 degrees) at 2 MPH (2 knots; 1.0 m/s)
Visibility: 6 or more miles (10+ km)
Ceiling: ceiling and visibility are OK
Clouds: unknown
Weather: no significant weather observed at this time

METAR text: OIAW 152300Z 06002KT CAVOK 31/10 Q0998
Conditions at: OIAW (AHWAZ , IR) observed 2300 UTC 15 June 2019
Temperature: 31.0°C (88°F)
Dewpoint: 10.0°C (50°F) [RH = 27%]
Pressure (altimeter): 29.47 inches Hg (998.0 mb)
Winds: from the ENE (60 degrees) at 2 MPH (2 knots; 1.0 m/s)
Visibility: 6 or more miles (10+ km)
Ceiling: ceiling and visibility are OK
Clouds: unknown
Weather: no significant weather observed at this time

Forecast for: OIAW (AHWAZ , IR)
Text: TAF OIAW 170510Z 1706/1812 31008KT 7000 NSC
Forecast period: 0600 to 0800 UTC 17 June 2019
Forecast type: FROM: standard forecast or significant change
Winds: from the NW (310 degrees) at 9 MPH (8 knots; 4.1 m/s)
Visibility: 4 miles (7 km)
Ceiling: unknown
Clouds: missing
Weather: no significant weather forecast for this period
Text: BECMG 1708/1710 31010KT
Forecast period: 0800 UTC 17 June 2019 to 1200 UTC 18 June 2019
Forecast type: BECOMING: Conditions expected to become as follows by 1000 UTC 17 June 2019
Winds: from the NW (310 degrees) at 12 MPH (10 knots; 5.1 m/s)
Visibility: 4 miles (7 km)
Ceiling: unknown
Clouds: missing
Weather: no significant weather forecast for this period
Text: TEMPO 1709/1715 32018KT 4000 SA
Forecast period: 0900 to 1500 UTC 17 June 2019
Forecast type: TEMPORARY: The following changes expected for less than half the time period
Winds: from the NW (320 degrees) at 21 MPH (18 knots; 9.3 m/s)
Visibility: 2.49 miles (4.01 km)
Ceiling: unknown
Clouds: missing
Weather: SA  (sand)
Text: TEMPO 1809/1812 32022KT 4000 SA
Forecast period: 0900 to 1200 UTC 18 June 2019
Forecast type: TEMPORARY: The following changes expected for less than half the time period
Winds: from the NW (320 degrees) at 25 MPH (22 knots; 11.3 m/s)
Visibility: 2.49 miles (4.01 km)
Ceiling: unknown
Clouds: missing
Weather: SA  (sand)